Bloomsburg, PA

1:44 PM EST on February 10, 2016 (GMT -0500)
Bloomsburg University | | Change Station
CLOSE
Current Station
Personal Weather Station
Location: Bloomsburg, PA
Elevation: 689 ft
Nearby Weather Stations

Elev 689 ft 41.01 °N, 76.45 °W | Updated 1 day ago

Snow
Snow
32 °F
Feels Like 22 °F
N
15
Wind Variable Wind from West
Gusts 23 mph

Today
High -- | Low -- °F
--% Chance of Precip.
Yesterday
High -- | Low -- °F
Precip. -- in
Pressure 29.74 in
Visibility 10.0 miles
Clouds Overcast 4200 ft
Windchill 22 °F
Dew Point 15 °F
Humidity 50%
Rainfall in
Snow Depth Not available.
7:07 AM 5:33 PM
Waxing Crescent, 6% visible
METAR KSEG 101753Z AUTO 27009G15KT 10SM OVC042 M01/M09 A2972 RMK AO2 SLP069 T10111089 11006 21022 50003
Pressure 29.74 in
Visibility 10.0 miles
Clouds Overcast 4200 ft
Windchill 22 °F
Dew Point 15 °F
Humidity 50%
Rainfall in
Snow Depth Not available.
7:07 AM 5:33 PM
Waxing Crescent, 6% visible
METAR KSEG 101753Z AUTO 27009G15KT 10SM OVC042 M01/M09 A2972 RMK AO2 SLP069 T10111089 11006 21022 50003

10-Day Weather Forecast

Almanac

Astronomy

Feb. 10, 2016 Rise Set
Actual Time
Civil Twilight
Nautical Twilight
Astronomical Twilight
Moon
Length of Visible Light
Length of Day
Tomorrow will be .
, % of the Moon is Illuminated

Today's Extremes

State Highs State Lows

Community

WunderPhotos

Upload Photos

1,891,915 photos uploaded!

WunderBlog® & News

Nearby

Air Quality

  Air Quality AQ Index Pollutant
Not available.

Snow Depth

Station Depth Elevation

Earthquake Activity

City Distance Mag. Time & Date
Minimum magnitude displayed is 2.5.

Coastal Water Temperatures

Place Temperature

Stations

Nearby Weather Stations

Station Location Temp. Windchill Dew Point Humidity Wind Precip. Elev Updated Type
                   

Watches & Warnings

There are currently no watches in effect.